Time;durP1;ratioP1;P1;durP2;ratioP2;P2;SDS_P1;SDS_P2;PMS_P1;PMS_P2;Temp;Humidity;BMP_temperature;BMP_pressure;BME280_temperature;BME280_humidity;BME280_pressure;Samples;Min_cycle;Max_cycle;Signal;HPM_P1;HPM_P2
2023/07/15 00:00:23;;;;;;;4.20;1.67;;;;;;;21.61;46.84;100322.81;4996105;28;20050;-94
2023/07/15 00:02:50;;;;;;;2.88;1.80;;;;;;;21.61;46.96;100321.03;4996270;28;20026;-94
2023/07/15 00:05:26;;;;;;;2.13;1.50;;;;;;;21.61;46.68;100320.16;4996114;28;20030;-96
2023/07/15 00:07:51;;;;;;;2.25;1.38;;;;;;;21.63;46.61;100326.19;4995537;28;20049;-93
2023/07/15 00:10:17;;;;;;;3.95;1.50;;;;;;;21.63;46.68;100320.88;4994503;28;20065;-93
2023/07/15 00:12:42;;;;;;;3.55;1.60;;;;;;;21.64;46.72;100317.28;4994972;28;20030;-94
2023/07/15 00:15:11;;;;;;;3.78;1.73;;;;;;;21.64;46.56;100317.28;4994199;28;20049;-93
2023/07/15 00:17:36;;;;;;;3.30;1.70;;;;;;;21.64;46.65;100318.13;4994156;28;20030;-95
2023/07/15 00:20:03;;;;;;;3.40;1.70;;;;;;;21.65;46.06;100318.97;4991725;28;20028;-95
2023/07/15 00:22:29;;;;;;;2.85;1.40;;;;;;;21.66;46.24;100320.66;4992831;28;20504;-95
2023/07/15 00:24:55;;;;;;;4.05;1.60;;;;;;;21.67;46.19;100317.03;4993956;28;20102;-94
2023/07/15 00:27:20;;;;;;;2.35;1.60;;;;;;;21.68;46.02;100306.34;4994098;28;20030;-93
2023/07/15 00:29:45;;;;;;;3.60;1.50;;;;;;;21.72;45.39;100316.66;4992600;28;20030;-94
2023/07/15 00:32:13;;;;;;;3.47;1.70;;;;;;;21.74;45.68;100301.50;4994288;28;20101;-95
2023/07/15 00:34:38;;;;;;;3.72;1.60;;;;;;;21.74;45.69;100302.34;4992191;28;20030;-95
2023/07/15 00:37:04;;;;;;;3.25;1.70;;;;;;;21.73;46.07;100311.25;4991900;28;20019;-95
2023/07/15 00:39:29;;;;;;;2.45;1.50;;;;;;;21.71;45.72;100309.69;4994494;28;20034;-95
2023/07/15 00:41:58;;;;;;;3.42;1.45;;;;;;;21.69;45.71;100315.09;4992941;28;20068;-93
2023/07/15 00:44:23;;;;;;;2.58;1.50;;;;;;;21.69;46.07;100315.09;4992916;28;20035;-94
2023/07/15 00:46:57;;;;;;;4.70;1.83;;;;;;;21.66;46.10;100310.06;4993880;28;20605;-94
2023/07/15 00:49:27;;;;;;;2.17;1.38;;;;;;;21.64;46.17;100320.78;4994376;28;20273;-95
2023/07/15 00:52:13;;;;;;;3.88;1.60;;;;;;;21.62;46.65;100317.41;4995437;28;20057;-95
2023/07/15 00:54:41;;;;;;;2.75;1.50;;;;;;;21.61;46.14;100325.47;4991718;28;20054;-95
2023/07/15 00:57:09;;;;;;;3.22;1.52;;;;;;;21.59;46.32;100309.69;4993360;28;20409;-95
2023/07/15 00:59:36;;;;;;;2.47;1.50;;;;;;;21.59;46.13;100320.28;4994191;28;20030;-90
2023/07/15 01:02:01;;;;;;;7.95;1.60;;;;;;;21.58;46.32;100323.88;5014928;28;20052;-89
2023/07/15 01:04:27;;;;;;;4.15;1.83;;;;;;;21.61;45.90;100330.75;5007194;28;20034;-95
2023/07/15 01:06:53;;;;;;;2.47;1.48;;;;;;;21.60;46.15;100327.28;4994417;28;20618;-95
2023/07/15 01:09:19;;;;;;;4.20;1.50;;;;;;;21.58;45.96;100329.19;4992682;28;20561;-94
2023/07/15 01:11:45;;;;;;;5.03;1.65;;;;;;;21.57;46.05;100327.50;4991964;28;20101;-95
2023/07/15 01:14:12;;;;;;;1.95;1.50;;;;;;;21.57;46.34;100331.97;4991731;28;20165;-95
2023/07/15 01:16:37;;;;;;;2.60;1.38;;;;;;;21.53;46.45;100328.69;4991949;28;20483;-95
2023/07/15 01:19:03;;;;;;;2.83;1.60;;;;;;;21.52;46.14;100329.69;4993265;28;20105;-95
2023/07/15 01:21:32;;;;;;;3.58;1.50;;;;;;;21.50;45.98;100326.31;4993370;28;20062;-95
2023/07/15 01:23:57;;;;;;;4.00;1.60;;;;;;;21.49;46.72;100324.63;4991588;28;20404;-96
2023/07/15 01:26:22;;;;;;;3.72;1.60;;;;;;;21.47;46.75;100326.56;4992908;28;20077;-95
2023/07/15 01:28:48;;;;;;;4.07;1.60;;;;;;;21.44;46.27;100326.81;4993946;28;20036;-94
2023/07/15 01:31:14;;;;;;;3.13;1.77;;;;;;;21.40;46.64;100326.22;4993022;28;20022;-95
2023/07/15 01:33:40;;;;;;;3.78;1.60;;;;;;;21.35;46.68;100329.22;4991214;28;20109;-93
2023/07/15 01:36:05;;;;;;;2.42;1.50;;;;;;;21.30;47.05;100334.03;4991122;28;20077;-95
2023/07/15 01:38:31;;;;;;;2.80;1.50;;;;;;;21.28;47.06;100328.03;4990924;28;20032;-96
2023/07/15 01:40:57;;;;;;;3.50;1.88;;;;;;;21.25;47.22;100333.56;4988832;28;20026;-95
2023/07/15 01:43:22;;;;;;;2.17;1.60;;;;;;;21.21;47.21;100332.13;4991571;28;20149;-96
2023/07/15 01:45:47;;;;;;;2.40;1.45;;;;;;;21.16;47.40;100321.06;4991361;28;20479;-95
2023/07/15 01:48:12;;;;;;;3.00;1.83;;;;;;;21.12;47.67;100331.03;4992094;28;20092;-94
2023/07/15 01:50:39;;;;;;;2.45;1.55;;;;;;;21.08;47.98;100329.63;4992586;28;20033;-95
2023/07/15 01:53:05;;;;;;;4.00;1.60;;;;;;;21.04;47.53;100331.63;4991287;28;20022;-94
2023/07/15 01:55:30;;;;;;;3.85;1.70;;;;;;;21.01;48.03;100337.16;4991701;28;20089;-94
2023/07/15 01:57:56;;;;;;;3.63;1.75;;;;;;;20.97;47.99;100330.44;4989025;28;20491;-95
2023/07/15 02:00:21;;;;;;;5.60;1.52;;;;;;;20.94;48.31;100328.03;4988536;28;20026;-96
2023/07/15 02:02:47;;;;;;;4.40;1.63;;;;;;;20.90;48.39;100330.09;4986367;28;20098;-94
2023/07/15 02:05:12;;;;;;;2.42;1.50;;;;;;;20.87;48.30;100345.31;4992076;28;20395;-96
2023/07/15 02:07:37;;;;;;;3.45;1.70;;;;;;;20.84;48.88;100340.28;4991364;28;20050;-94
2023/07/15 02:10:03;;;;;;;4.00;1.70;;;;;;;20.77;48.59;100335.47;4991528;28;20033;-96
2023/07/15 02:12:28;;;;;;;2.58;1.55;;;;;;;20.74;48.99;100335.69;4992118;28;20034;-96
2023/07/15 02:14:54;;;;;;;3.80;1.63;;;;;;;20.70;49.44;100342.16;4990145;28;20029;-96
2023/07/15 02:17:22;;;;;;;5.30;1.80;;;;;;;20.65;49.52;100341.69;4993498;28;20037;-96
2023/07/15 02:19:51;;;;;;;4.88;1.92;;;;;;;20.62;49.38;100337.47;4988170;28;20072;-94
2023/07/15 02:22:17;;;;;;;2.78;1.73;;;;;;;20.59;49.69;100342.13;4992629;28;20018;-94
2023/07/15 02:24:42;;;;;;;2.78;1.77;;;;;;;20.57;49.90;100349.34;4995308;28;20418;-94
2023/07/15 02:27:08;;;;;;;2.90;1.80;;;;;;;20.53;50.01;100334.66;4998474;28;20030;-95
2023/07/15 02:29:33;;;;;;;3.70;2.00;;;;;;;20.51;50.02;100336.59;4996715;28;20026;-96
2023/07/15 02:31:58;;;;;;;3.55;1.83;;;;;;;20.45;49.94;100346.69;4992752;28;20538;-95
2023/07/15 02:34:26;;;;;;;3.60;1.90;;;;;;;20.41;50.45;100345.22;4995538;28;20088;-94
2023/07/15 02:36:52;;;;;;;6.03;1.90;;;;;;;20.39;50.48;100351.59;4997436;28;20022;-95
2023/07/15 02:39:18;;;;;;;3.90;1.67;;;;;;;20.36;50.24;100352.63;4990466;28;20033;-94
2023/07/15 02:41:44;;;;;;;3.78;1.90;;;;;;;20.35;50.10;100356.25;4992202;28;20093;-95
2023/07/15 02:44:09;;;;;;;3.72;1.67;;;;;;;20.34;50.55;100351.09;4991053;28;20022;-96
2023/07/15 02:46:34;;;;;;;3.50;2.00;;;;;;;20.33;50.58;100347.59;4991386;28;20101;-94
2023/07/15 02:49:00;;;;;;;4.93;1.50;;;;;;;20.30;50.75;100342.56;4989434;28;20666;-94
2023/07/15 02:51:25;;;;;;;2.92;1.67;;;;;;;20.28;50.34;100339.19;4987950;28;20058;-95
2023/07/15 02:53:51;;;;;;;2.55;1.75;;;;;;;20.27;50.40;100350.69;4992723;28;20467;-95
2023/07/15 02:56:16;;;;;;;4.97;1.67;;;;;;;20.25;50.72;100342.88;4992239;28;20018;-95
2023/07/15 02:58:42;;;;;;;3.58;1.70;;;;;;;20.22;50.78;100345.78;4993012;28;20426;-93
2023/07/15 03:01:08;;;;;;;3.95;1.60;;;;;;;20.21;51.16;100345.88;4995111;28;20387;-94
2023/07/15 03:03:33;;;;;;;3.95;1.77;;;;;;;;;;4992973;28;20588;-95
2023/07/15 03:06:00;;;;;;;3.03;1.52;;;;;;;20.10;51.55;100347.53;4995805;28;20041;-95
2023/07/15 03:08:25;;;;;;;2.95;1.55;;;;;;;20.08;51.56;100348.56;4992123;28;20117;-96
2023/07/15 03:10:50;;;;;;;6.65;1.70;;;;;;;20.03;51.59;100346.28;4995835;28;20491;-87
2023/07/15 03:13:16;;;;;;;3.22;1.77;;;;;;;19.99;51.71;100339.53;5017084;28;20024;-90
2023/07/15 03:15:42;;;;;;;3.28;1.60;;;;;;;19.95;51.92;100338.09;5002064;28;20042;-94
2023/07/15 03:18:07;;;;;;;4.47;1.90;;;;;;;19.93;52.22;100340.00;4995130;28;20062;-95
2023/07/15 03:20:32;;;;;;;6.50;2.00;;;;;;;19.90;52.28;100343.69;4996557;28;20026;-96
2023/07/15 03:22:58;;;;;;;4.70;1.80;;;;;;;19.86;52.63;100336.94;4991786;28;20425;-95
2023/07/15 03:25:24;;;;;;;4.22;1.73;;;;;;;19.84;52.78;100342.31;4993070;28;20026;-95
2023/07/15 03:27:50;;;;;;;5.75;2.13;;;;;;;19.82;52.63;100340.75;4992622;28;20037;-95
2023/07/15 03:30:16;;;;;;;4.47;1.90;;;;;;;19.78;52.96;100340.13;4992065;28;21164;-94
2023/07/15 03:32:42;;;;;;;6.80;2.05;;;;;;;19.76;53.11;100343.81;4989189;28;20034;-95
2023/07/15 03:35:09;;;;;;;5.82;1.95;;;;;;;19.73;52.96;100341.44;4991758;28;20022;-94
2023/07/15 03:37:35;;;;;;;5.88;1.90;;;;;;;19.70;53.32;100345.13;4992915;28;20034;-95
2023/07/15 03:40:01;;;;;;;9.02;1.98;;;;;;;19.69;53.45;100348.69;4994342;28;20105;-95
2023/07/15 03:42:27;;;;;;;4.55;2.00;;;;;;;19.67;53.46;100346.19;4993571;28;20109;-95
2023/07/15 03:44:53;;;;;;;5.13;2.28;;;;;;;19.65;53.82;100352.50;4991006;28;20540;-95
2023/07/15 03:47:19;;;;;;;3.58;1.98;;;;;;;19.62;53.86;100350.13;4993422;28;20038;-95
2023/07/15 03:49:44;;;;;;;5.72;2.13;;;;;;;19.58;54.18;100348.66;4991081;28;20027;-94
2023/07/15 03:52:10;;;;;;;4.38;2.25;;;;;;;19.54;54.56;100345.38;4992109;28;20030;-95
2023/07/15 03:54:35;;;;;;;5.50;2.08;;;;;;;19.48;54.71;100346.66;4988154;28;20120;-95
2023/07/15 03:57:01;;;;;;;3.70;1.85;;;;;;;19.42;55.06;100344.47;4993027;28;20028;-94
2023/07/15 03:59:26;;;;;;;3.10;1.80;;;;;;;19.38;55.50;100343.00;4989122;28;20045;-96
2023/07/15 04:01:51;;;;;;;2.90;2.00;;;;;;;19.33;56.24;100345.09;4991260;28;20022;-94
2023/07/15 04:04:16;;;;;;;3.70;2.25;;;;;;;19.26;57.23;100342.06;4990854;28;20383;-94
2023/07/15 04:06:43;;;;;;;3.90;1.92;;;;;;;19.21;56.17;100338.91;4994251;28;20456;-94
2023/07/15 04:09:11;;;;;;;5.43;1.77;;;;;;;19.19;55.95;100336.38;4991136;28;20030;-96
2023/07/15 04:11:37;;;;;;;2.20;1.60;;;;;;;19.19;56.31;100340.81;4991912;28;20027;-94
2023/07/15 04:14:02;;;;;;;3.25;1.60;;;;;;;19.18;56.15;100345.22;4991545;28;20091;-95
2023/07/15 04:16:29;;;;;;;2.90;1.77;;;;;;;19.15;56.51;100342.81;4986438;28;20025;-95
2023/07/15 04:18:54;;;;;;;4.82;1.75;;;;;;;19.13;56.79;100344.69;4986771;28;20125;-94
2023/07/15 04:21:20;;;;;;;2.83;1.80;;;;;;;19.13;56.26;100342.06;4988356;28;20153;-94
2023/07/15 04:23:45;;;;;;;2.47;1.70;;;;;;;19.13;56.17;100336.78;4982467;28;20045;-93
2023/07/15 04:26:11;;;;;;;2.50;1.73;;;;;;;19.15;56.40;100344.63;4989641;28;20513;-94
2023/07/15 04:28:37;;;;;;;3.45;1.85;;;;;;;19.17;56.62;100348.81;4989258;28;20498;-92
2023/07/15 04:31:02;;;;;;;4.10;1.73;;;;;;;19.17;56.13;100346.19;4983362;28;20030;-96
2023/07/15 04:33:27;;;;;;;2.10;1.60;;;;;;;19.19;56.02;100352.19;4985276;28;20026;-96
2023/07/15 04:35:53;;;;;;;3.63;2.17;;;;;;;19.19;55.95;100346.91;4988145;28;20022;-94
2023/07/15 04:38:21;;;;;;;4.18;1.60;;;;;;;19.21;56.88;100355.56;4985318;28;20532;-95
2023/07/15 04:40:46;;;;;;;4.45;1.90;;;;;;;19.24;56.36;100354.50;4987720;28;20102;-94
2023/07/15 04:43:11;;;;;;;3.60;2.00;;;;;;;19.25;56.47;100354.41;4993452;28;20049;-96
2023/07/15 04:45:37;;;;;;;3.67;1.75;;;;;;;19.29;56.54;100356.84;4999147;28;20471;-95
2023/07/15 04:48:03;;;;;;;4.28;1.67;;;;;;;19.32;56.80;100367.16;5000759;28;20052;-94
2023/07/15 04:50:28;;;;;;;4.55;1.98;;;;;;;19.33;56.94;100359.16;5003800;28;21009;-93
2023/07/15 04:52:53;;;;;;;3.50;1.63;;;;;;;19.36;56.40;100368.63;4995591;28;20019;-95
2023/07/15 04:55:19;;;;;;;2.80;1.63;;;;;;;19.39;57.20;100369.25;5005083;28;20034;-96
2023/07/15 04:57:44;;;;;;;2.72;1.88;;;;;;;19.42;56.89;100368.22;4995683;28;20031;-94
2023/07/15 05:00:13;;;;;;;4.90;2.10;;;;;;;19.45;57.10;100368.00;4996224;28;20439;-94
2023/07/15 05:02:38;;;;;;;3.65;1.83;;;;;;;19.46;56.68;100372.31;4994374;28;20034;-90
2023/07/15 05:05:05;;;;;;;4.00;1.80;;;;;;;19.50;56.83;100368.50;5008393;28;20057;-96
2023/07/15 05:07:31;;;;;;;3.22;1.90;;;;;;;19.51;56.73;100364.91;5000354;28;20491;-94
2023/07/15 05:09:56;;;;;;;5.20;2.03;;;;;;;19.54;56.99;100366.50;5005176;28;20087;-94
2023/07/15 05:12:22;;;;;;;3.92;1.98;;;;;;;19.55;56.94;100363.75;5004218;28;20026;-94
2023/07/15 05:14:48;;;;;;;2.35;1.60;;;;;;;19.60;57.45;100370.50;5001867;28;20030;-95
2023/07/15 05:17:13;;;;;;;5.45;1.90;;;;;;;19.62;57.25;100366.78;4996146;28;20053;-95
2023/07/15 05:19:38;;;;;;;4.65;1.80;;;;;;;19.63;56.75;100365.81;5001320;28;20065;-95
2023/07/15 05:22:04;;;;;;;3.15;1.85;;;;;;;19.66;56.89;100364.75;5002533;28;20018;-96
2023/07/15 05:24:29;;;;;;;4.22;2.00;;;;;;;19.68;56.60;100362.84;5005501;28;20034;-93
2023/07/15 05:26:55;;;;;;;2.90;1.67;;;;;;;19.71;56.79;100354.72;5007803;28;20419;-94
2023/07/15 05:29:22;;;;;;;4.65;1.88;;;;;;;19.74;57.20;100365.06;5010222;28;20038;-95
2023/07/15 05:31:48;;;;;;;3.40;1.80;;;;;;;19.77;57.06;100356.94;5002052;28;20018;-95
2023/07/15 05:34:13;;;;;;;4.32;1.92;;;;;;;19.80;57.05;100353.22;5005113;28;20050;-95
2023/07/15 05:36:38;;;;;;;2.85;1.63;;;;;;;19.84;57.03;100352.88;5001373;28;20169;-96
2023/07/15 05:39:04;;;;;;;1.83;1.40;;;;;;;19.90;57.35;100366.63;5005365;28;20022;-94
2023/07/15 05:41:29;;;;;;;3.30;1.90;;;;;;;19.93;56.57;100366.41;5011392;28;20041;-93
2023/07/15 05:49:27;;;;;;;2.38;1.58;;;;;;;20.03;57.30;100377.97;5186163;23;20042;-95
2023/07/15 05:52:23;;;;;;;4.07;2.00;;;;;;;20.08;57.15;100374.97;5011119;28;20068;-96
2023/07/15 05:55:01;;;;;;;;;;;;;;;;;;;;;
2023/07/15 05:58:12;;;;;;;;;;;;;;;;;;;;;
2023/07/15 06:01:54;;;;;;;;;;;;;;;;;;;;;
2023/07/15 06:27:21;;;;;;;;;;;;;;;;;;;;;
2023/07/15 06:38:00;;;;;;;2.55;1.40;;;;;;;21.15;59.49;100385.53;5317323;23;20053;-93
2023/07/15 06:40:36;;;;;;;2.15;1.40;;;;;;;21.22;60.37;100386.72;4991056;28;20057;-94
2023/07/15 06:43:12;;;;;;;;;;;;;;;;;;;;;
2023/07/15 06:45:40;;;;;;;3.67;1.70;;;;;;;21.32;61.39;100382.41;5016485;28;20031;-96
2023/07/15 06:48:17;;;;;;;2.25;1.17;;;;;;;21.42;60.53;100387.81;5015316;28;20083;-92
2023/07/15 06:53:52;;;;;;;2.35;1.23;;;;;;;21.67;61.26;100389.38;5102519;23;20057;-95
2023/07/15 06:56:26;;;;;;;2.08;1.05;;;;;;;21.77;60.49;100378.03;5008826;28;20026;-93
2023/07/15 06:59:24;;;;;;;;;;;;;;;;;;;;;
2023/07/15 07:02:08;;;;;;;1.67;1.10;;;;;;;21.93;60.63;100378.47;5010673;28;20030;-91
2023/07/15 07:04:59;;;;;;;4.28;1.13;;;;;;;21.96;60.06;100372.94;5016077;28;20034;-93
2023/07/15 07:10:56;;;;;;;2.00;0.90;;;;;;;21.91;60.63;100380.41;5308667;23;20062;-93
2023/07/15 07:17:28;;;;;;;1.80;1.15;;;;;;;21.98;61.12;100373.66;5596735;23;20022;-95
2023/07/15 07:45:56;;;;;;;2.15;1.20;;;;;;;22.64;59.21;100411.56;5959155;23;20069;-95
2023/07/15 08:27:57;;;;;;;2.63;0.90;;;;;;;23.47;59.79;100403.66;5684846;23;20268;-90
2023/07/15 08:30:28;;;;;;;2.25;1.00;;;;;;;23.65;59.65;100406.50;4944660;28;20047;-93
2023/07/15 08:35:47;;;;;;;2.47;1.05;;;;;;;23.87;58.46;100414.41;5144533;23;20046;-93
2023/07/15 08:41:19;;;;;;;2.35;1.05;;;;;;;23.94;57.85;100424.34;5102765;23;20058;-96
2023/07/15 08:43:45;;;;;;;1.70;1.00;;;;;;;23.87;57.03;100419.72;4987390;28;20046;-95
2023/07/15 08:46:51;;;;;;;;;;;;;;;;;;;;;
2023/07/15 08:57:40;;;;;;;2.83;1.00;;;;;;;23.84;57.60;100444.72;5340909;23;20053;-96
2023/07/15 09:08:00;;;;;;;3.60;1.20;;;;;;;23.66;57.37;100471.09;5007362;28;20057;-92
2023/07/15 09:14:57;;;;;;;;;;;;;;;;;;;;;
2023/07/15 10:13:37;;;;;;;2.30;1.30;;;;;;;23.32;57.61;100506.69;5441756;23;20050;-90
2023/07/15 10:35:17;;;;;;;;;;;;;;;;;;;;;
2023/07/15 10:38:23;;;;;;;2.58;1.13;;;;;;;22.86;59.96;100468.09;4879938;29;20040;-93
2023/07/15 10:56:43;;;;;;;5.28;1.65;;;;;;;23.18;59.70;100475.16;5010693;26;20058;-93
2023/07/15 10:59:14;;;;;;;3.67;1.33;;;;;;;23.09;59.96;100475.94;5003963;28;20014;-89
2023/07/15 11:01:39;;;;;;;2.45;1.30;;;;;;;23.10;60.16;100470.50;5001166;28;20100;-94
2023/07/15 11:07:41;;;;;;;;;;;;;;;;;;;;;
2023/07/15 11:10:49;;;;;;;;;;;;;;;;;;;;;
2023/07/15 11:16:39;;;;;;;4.13;1.20;;;;;;;23.03;59.50;100485.28;4908173;29;20047;-94
2023/07/15 12:29:24;;;;;;;3.88;1.75;;;;;;;24.26;57.72;100406.47;5012413;28;20172;-91
2023/07/15 12:31:50;;;;;;;3.83;1.52;;;;;;;24.22;57.54;100400.59;5012669;28;20060;-94
2023/07/15 12:35:01;;;;;;;3.30;1.42;;;;;;;24.21;58.19;100412.22;5018128;28;20025;-95
2023/07/15 12:37:26;;;;;;;2.97;1.40;;;;;;;24.19;57.75;100408.03;5010418;28;20044;-94
2023/07/15 12:40:12;;;;;;;1.92;1.38;;;;;;;24.17;58.63;100402.84;5010422;28;20120;-95
2023/07/15 12:42:43;;;;;;;2.35;1.30;;;;;;;24.16;58.17;100398.53;5011756;28;20022;-93
2023/07/15 12:45:27;;;;;;;;;;;;;;;;;;;;;
2023/07/15 12:47:53;;;;;;;2.08;1.42;;;;;;;24.27;58.04;100394.88;5008054;28;20385;-95
2023/07/15 12:50:19;;;;;;;3.55;1.40;;;;;;;24.40;58.09;100394.59;5008830;28;20039;-92
2023/07/15 12:52:44;;;;;;;4.63;1.80;;;;;;;24.52;58.04;100392.63;5007489;28;20050;-93
2023/07/15 12:55:09;;;;;;;3.03;1.60;;;;;;;24.57;56.94;100390.38;5007685;28;20032;-93
2023/07/15 12:58:17;;;;;;;;;;;;;;;;;;;;;
2023/07/15 13:00:53;;;;;;;;;;;;;;;;;;;;;
2023/07/15 13:03:27;;;;;;;2.83;1.60;;;;;;;24.70;55.72;100401.59;5010011;28;20026;-95
2023/07/15 13:05:58;;;;;;;3.42;1.67;;;;;;;24.68;56.67;100400.84;5017315;28;20026;-91
2023/07/15 13:09:09;;;;;;;3.08;1.60;;;;;;;24.68;55.92;100406.19;5018397;28;20084;-95
2023/07/15 13:11:36;;;;;;;;;;;;;;;24.73;55.73;100402.28;5057251;23;20039;-95
2023/07/15 13:17:17;;;;;;;3.90;1.55;;;;;;;24.92;56.09;100394.28;4935037;29;20040;-93
2023/07/15 13:19:42;;;;;;;2.67;1.55;;;;;;;24.94;55.82;100386.97;4991672;28;20046;-94
2023/07/15 13:22:10;;;;;;;3.63;1.50;;;;;;;24.96;55.64;100386.84;4970036;28;20042;-95
2023/07/15 13:24:38;;;;;;;4.25;1.52;;;;;;;24.98;55.69;100377.72;4970195;28;20488;-94
2023/07/15 13:27:07;;;;;;;3.25;1.52;;;;;;;24.97;54.93;100378.69;4972449;28;20015;-95
2023/07/15 13:29:32;;;;;;;2.33;1.70;;;;;;;24.96;55.41;100366.38;4974626;28;20038;-94
2023/07/15 13:31:58;;;;;;;2.88;1.50;;;;;;;24.99;54.67;100366.09;4970746;28;20039;-94
2023/07/15 13:34:23;;;;;;;3.58;1.60;;;;;;;25.00;54.19;100370.41;4969307;28;20365;-95
2023/07/15 13:36:54;;;;;;;2.20;1.65;;;;;;;25.01;54.92;100355.31;4969363;28;20038;-94
2023/07/15 13:39:39;;;;;;;3.38;1.60;;;;;;;24.98;54.70;100361.75;4967105;28;20436;-93
2023/07/15 13:42:06;;;;;;;4.28;1.70;;;;;;;24.95;53.81;100334.59;4965331;28;20035;-94
2023/07/15 13:44:33;;;;;;;2.45;1.50;;;;;;;24.92;54.20;100345.53;4970846;28;20152;-96
2023/07/15 13:46:58;;;;;;;2.95;1.33;;;;;;;24.93;55.77;100334.75;4965946;28;20046;-93
2023/07/15 13:49:30;;;;;;;2.65;1.80;;;;;;;25.05;55.09;100330.06;4967027;28;20031;-92
2023/07/15 13:52:04;;;;;;;2.80;1.73;;;;;;;25.15;54.05;100319.38;4969205;28;20424;-92
2023/07/15 13:54:32;;;;;;;4.43;1.60;;;;;;;25.22;53.16;100328.44;4956487;28;20030;-95
2023/07/15 13:57:05;;;;;;;3.17;1.70;;;;;;;25.30;53.12;100322.38;4975461;28;20027;-93
2023/07/15 13:59:33;;;;;;;8.95;1.70;;;;;;;25.37;51.49;100323.44;4974871;28;20039;-94
2023/07/15 14:02:23;;;;;;;4.43;1.70;;;;;;;25.45;51.88;100325.38;4977215;28;20030;-95
2023/07/15 14:04:54;;;;;;;5.05;2.00;;;;;;;25.51;49.68;100324.81;4970096;28;20059;-92
2023/07/15 14:07:28;;;;;;;14.23;2.40;;;;;;;25.59;48.49;100332.91;4976005;28;20113;-95
2023/07/15 14:09:58;;;;;;;8.57;1.77;;;;;;;25.65;48.50;100325.28;4978647;28;20026;-95
2023/07/15 14:12:47;;;;;;;3.45;1.70;;;;;;;25.63;49.55;100316.59;4978944;28;20051;-96
2023/07/15 14:15:12;;;;;;;3.38;1.92;;;;;;;25.63;49.55;100311.25;4976438;28;20484;-95
2023/07/15 14:17:42;;;;;;;2.92;1.60;;;;;;;25.72;48.99;100305.03;4973192;28;20043;-94
2023/07/15 14:20:08;;;;;;;3.65;1.70;;;;;;;25.81;48.39;100303.28;4977250;28;20484;-94
2023/07/15 14:22:34;;;;;;;3.50;2.00;;;;;;;25.87;48.17;100300.84;4976766;28;20042;-94
2023/07/15 14:24:59;;;;;;;5.15;2.15;;;;;;;25.98;49.53;100293.59;4970976;28;20035;-92
2023/07/15 14:27:24;;;;;;;4.30;1.95;;;;;;;26.13;47.98;100293.91;4950599;28;20072;-95
2023/07/15 14:30:09;;;;;;;17.45;2.90;;;;;;;26.29;47.23;100287.88;4969437;28;20023;-96
2023/07/15 14:32:38;;;;;;;5.28;2.10;;;;;;;26.38;47.03;100294.94;4977858;28;20550;-96
2023/07/15 14:35:12;;;;;;;26.73;2.78;;;;;;;26.46;47.13;100297.66;4954835;28;20059;-92
2023/07/15 14:37:38;;;;;;;17.30;2.40;;;;;;;26.47;46.52;100309.16;4970221;28;20450;-95
2023/07/15 14:40:04;;;;;;;6.88;2.17;;;;;;;26.34;47.29;100317.56;4970156;28;20113;-92
2023/07/15 14:42:30;;;;;;;6.75;2.08;;;;;;;26.21;46.45;100316.16;4970989;28;20031;-94
2023/07/15 14:44:55;;;;;;;15.93;2.30;;;;;;;26.18;46.51;100313.78;4969713;28;20019;-94
2023/07/15 14:47:46;;;;;;;4.95;1.80;;;;;;;26.20;46.50;100309.16;4971857;28;20038;-92
2023/07/15 14:50:19;;;;;;;10.90;2.30;;;;;;;26.34;46.96;100306.91;4974641;28;20502;-95
2023/07/15 14:52:52;;;;;;;45.40;3.45;;;;;;;26.41;46.66;100307.09;4972769;28;20456;-93
2023/07/15 14:55:19;;;;;;;5.53;2.00;;;;;;;26.40;46.16;100297.44;4979656;28;20031;-95
2023/07/15 14:58:09;;;;;;;;;;;;;;;;;;;;;
2023/07/15 15:00:34;;;;;;;13.80;2.70;;;;;;;26.59;47.11;100299.88;4976000;28;20052;-93
2023/07/15 15:03:02;;;;;;;18.08;3.25;;;;;;;26.51;46.21;100305.19;4976293;28;20449;-93
2023/07/15 15:05:48;;;;;;;6.35;2.47;;;;;;;26.33;46.65;100315.88;4974213;28;20045;-94
2023/07/15 15:08:25;;;;;;;27.38;2.67;;;;;;;26.33;47.44;100318.56;4974198;28;20515;-95
2023/07/15 15:10:54;;;;;;;6.70;1.85;;;;;;;26.49;47.68;100308.00;4951600;28;20404;-92
2023/07/15 15:13:19;;;;;;;6.82;2.00;;;;;;;26.65;47.71;100298.41;4950527;28;20111;-93
2023/07/15 15:15:52;;;;;;;6.68;1.92;;;;;;;26.78;46.65;100308.66;4952677;28;20023;-93
2023/07/15 15:18:21;;;;;;;11.30;2.25;;;;;;;26.77;45.67;100299.84;4948953;28;20124;-96
2023/07/15 15:20:54;;;;;;;5.57;1.70;;;;;;;26.72;45.68;100296.81;4966025;28;20067;-94
2023/07/15 15:23:40;;;;;;;7.78;2.10;;;;;;;26.77;46.07;100305.19;4958390;28;20038;-95
2023/07/15 15:26:16;;;;;;;3.03;1.50;;;;;;;26.78;44.49;100296.19;4963918;28;20071;-94
2023/07/15 15:28:44;;;;;;;4.00;1.63;;;;;;;26.60;45.22;100308.75;4952721;28;20034;-91
2023/07/15 15:31:10;;;;;;;7.15;2.10;;;;;;;26.38;46.56;100289.59;4948989;28;20044;-95
2023/07/15 15:33:35;;;;;;;3.15;1.70;;;;;;;26.43;46.11;100292.66;4946233;28;20387;-90
2023/07/15 15:36:00;;;;;;;3.53;1.70;;;;;;;26.49;46.39;100294.66;4949048;28;20030;-93
2023/07/15 15:38:26;;;;;;;27.52;2.90;;;;;;;26.55;45.26;100300.38;4950401;28;20035;-93
2023/07/15 15:40:54;;;;;;;4.28;1.60;;;;;;;26.68;45.54;100300.78;4950276;28;20038;-94
2023/07/15 15:43:19;;;;;;;2.53;1.52;;;;;;;26.73;44.43;100290.47;4947152;28;20042;-93
2023/07/15 15:45:45;;;;;;;3.25;1.52;;;;;;;26.61;45.19;100299.75;4947226;28;20028;-92
2023/07/15 15:48:10;;;;;;;5.63;1.80;;;;;;;26.51;45.82;100302.53;4944871;28;20476;-92
2023/07/15 15:50:35;;;;;;;7.18;2.00;;;;;;;27.04;44.48;100289.97;4945428;28;20420;-91
2023/07/15 15:53:00;;;;;;;6.13;1.83;;;;;;;27.37;42.92;100284.72;4943761;28;20054;-90
2023/07/15 15:55:26;;;;;;;2.33;1.77;;;;;;;27.21;43.72;100279.34;4945445;28;20031;-91
2023/07/15 15:57:51;;;;;;;8.10;1.98;;;;;;;26.98;44.42;100279.09;4944736;28;20031;-91
2023/07/15 16:00:20;;;;;;;6.22;1.58;;;;;;;26.76;44.76;100279.50;4943114;28;20050;-92
2023/07/15 16:02:45;;;;;;;3.85;1.70;;;;;;;26.47;45.29;100293.16;4944092;28;20038;-92
2023/07/15 16:05:13;;;;;;;3.15;1.73;;;;;;;26.23;44.87;100309.81;4946827;28;20031;-94
2023/07/15 16:07:38;;;;;;;3.72;1.60;;;;;;;26.02;45.45;100343.81;4944288;28;20030;-92
2023/07/15 16:10:06;;;;;;;3.20;1.67;;;;;;;25.86;46.33;100392.44;4944729;28;20112;-92
2023/07/15 16:12:31;;;;;;;5.38;1.30;;;;;;;25.51;48.96;100396.72;4964790;28;20054;-93
2023/07/15 16:14:57;;;;;;;5.65;1.30;;;;;;;24.76;50.72;100431.28;4966752;28;20038;-94
2023/07/15 16:17:22;;;;;;;5.10;1.40;;;;;;;24.11;52.95;100422.00;4962525;28;20022;-93
2023/07/15 16:19:47;;;;;;;3.95;1.05;;;;;;;23.70;53.66;100435.31;4992101;28;20054;-92
2023/07/15 16:22:13;;;;;;;3.85;1.30;;;;;;;23.38;56.81;100439.00;4948535;28;20041;-93
2023/07/15 16:24:38;;;;;;;2.58;1.02;;;;;;;23.13;58.38;100411.88;4966903;28;20478;-93
2023/07/15 16:27:04;;;;;;;6.53;1.10;;;;;;;22.84;60.37;100427.59;4973292;28;20026;-92
2023/07/15 16:29:29;;;;;;;3.33;1.10;;;;;;;22.48;61.36;100435.88;4952202;28;21087;-90
2023/07/15 16:31:54;;;;;;;3.28;1.08;;;;;;;22.16;62.40;100439.34;4966536;28;20034;-90
2023/07/15 16:34:19;;;;;;;3.03;1.13;;;;;;;21.96;63.14;100435.63;4965148;28;20026;-90
2023/07/15 16:36:45;;;;;;;2.60;1.00;;;;;;;21.75;65.85;100441.72;4977045;28;20050;-91
2023/07/15 16:39:13;;;;;;;4.65;1.00;;;;;;;21.65;66.96;100441.59;4966374;28;20131;-90
2023/07/15 16:41:39;;;;;;;2.80;1.02;;;;;;;21.58;68.52;100448.28;4966368;28;20027;-91
2023/07/15 16:44:05;;;;;;;4.80;1.27;;;;;;;21.53;69.15;100442.50;4947453;28;20490;-90
2023/07/15 16:46:30;;;;;;;3.08;1.10;;;;;;;21.44;69.55;100417.59;4946721;28;20018;-90
2023/07/15 16:48:55;;;;;;;2.85;1.10;;;;;;;21.44;69.38;100408.84;4965210;28;20436;-88
2023/07/15 16:51:21;;;;;;;2.78;0.98;;;;;;;21.51;69.35;100413.53;4965946;28;20030;-90
2023/07/15 16:53:46;;;;;;;1.90;1.00;;;;;;;21.56;69.61;100415.81;4965521;28;20467;-90
2023/07/15 16:56:11;;;;;;;1.98;1.05;;;;;;;21.51;68.77;100423.28;4969530;28;20054;-88
2023/07/15 16:58:37;;;;;;;4.22;1.15;;;;;;;21.46;69.33;100404.28;4966432;28;20058;-88
2023/07/15 17:01:03;;;;;;;4.43;1.00;;;;;;;21.57;70.25;100412.19;4964851;28;20030;-92
2023/07/15 17:03:29;;;;;;;3.92;1.23;;;;;;;21.82;70.40;100426.16;4965564;28;20026;-90